Terminal Aerodrome Forecast
Issued by NWS Charleston, WV

Current Version | Previous Version | Text Only | Print | Product List | Glossary Off
Versions: 1 2 3 4 5 6 7 8 9 10 11 12 13 14 15 16 17 18 19 20 21 22

000
FTUS41 KRLX 280541
TAFBKW
TAF
KBKW 280541Z 2806/2906 15004KT P6SM VCSH OVC080
     FM280800 16005KT 4SM SHRA OVC040
     FM281100 17006KT 4SM BR VCSH OVC040
     FM281300 19006KT P6SM VCSH OVC025
     FM281900 25007KT P6SM VCSH BKN040
     FM290300 VRB03KT P6SM SCT150=

USA.gov is the U.S. government's official web portal to all federal, state and local government web resources and services.